sensor_id;sensor_type;location;lat;lon;timestamp;P1;durP1;ratioP1;P2;durP2;ratioP2
46284;SDS011;32018;59.182;18.148;2023-10-31T00:01:28;15.18;;;4.20;;
46284;SDS011;32018;59.182;18.148;2023-10-31T00:03:53;21.95;;;4.38;;
46284;SDS011;32018;59.182;18.148;2023-10-31T00:06:18;16.03;;;4.97;;
46284;SDS011;32018;59.182;18.148;2023-10-31T00:08:44;7.97;;;3.60;;
46284;SDS011;32018;59.182;18.148;2023-10-31T00:11:09;14.57;;;3.90;;
46284;SDS011;32018;59.182;18.148;2023-10-31T00:13:34;9.23;;;3.50;;
46284;SDS011;32018;59.182;18.148;2023-10-31T00:15:59;13.20;;;3.87;;
46284;SDS011;32018;59.182;18.148;2023-10-31T00:18:24;7.83;;;4.10;;
46284;SDS011;32018;59.182;18.148;2023-10-31T00:20:50;6.30;;;3.07;;
46284;SDS011;32018;59.182;18.148;2023-10-31T00:23:15;8.67;;;2.87;;
46284;SDS011;32018;59.182;18.148;2023-10-31T00:25:40;10.95;;;2.55;;
46284;SDS011;32018;59.182;18.148;2023-10-31T00:28:05;12.00;;;3.73;;
46284;SDS011;32018;59.182;18.148;2023-10-31T00:30:30;11.23;;;4.10;;
46284;SDS011;32018;59.182;18.148;2023-10-31T00:32:56;14.77;;;3.55;;
46284;SDS011;32018;59.182;18.148;2023-10-31T00:35:21;6.90;;;2.50;;
46284;SDS011;32018;59.182;18.148;2023-10-31T00:37:46;12.20;;;3.20;;
46284;SDS011;32018;59.182;18.148;2023-10-31T00:40:11;5.90;;;2.80;;
46284;SDS011;32018;59.182;18.148;2023-10-31T00:42:39;6.90;;;3.28;;
46284;SDS011;32018;59.182;18.148;2023-10-31T00:45:07;6.97;;;3.00;;
46284;SDS011;32018;59.182;18.148;2023-10-31T00:47:32;8.65;;;3.70;;
46284;SDS011;32018;59.182;18.148;2023-10-31T00:49:57;6.72;;;2.53;;
46284;SDS011;32018;59.182;18.148;2023-10-31T00:52:23;11.10;;;2.70;;
46284;SDS011;32018;59.182;18.148;2023-10-31T00:54:48;8.37;;;2.63;;
46284;SDS011;32018;59.182;18.148;2023-10-31T00:57:13;6.28;;;2.45;;
46284;SDS011;32018;59.182;18.148;2023-10-31T00:59:38;5.72;;;2.33;;
46284;SDS011;32018;59.182;18.148;2023-10-31T01:02:04;5.97;;;3.17;;
46284;SDS011;32018;59.182;18.148;2023-10-31T01:04:29;6.78;;;2.30;;
46284;SDS011;32018;59.182;18.148;2023-10-31T01:06:55;7.18;;;2.90;;
46284;SDS011;32018;59.182;18.148;2023-10-31T01:09:21;4.87;;;2.07;;
46284;SDS011;32018;59.182;18.148;2023-10-31T01:11:46;7.87;;;2.70;;
46284;SDS011;32018;59.182;18.148;2023-10-31T01:14:11;8.20;;;2.60;;
46284;SDS011;32018;59.182;18.148;2023-10-31T01:16:36;5.53;;;2.40;;
46284;SDS011;32018;59.182;18.148;2023-10-31T01:19:01;5.47;;;2.35;;
46284;SDS011;32018;59.182;18.148;2023-10-31T01:21:27;4.38;;;2.15;;
46284;SDS011;32018;59.182;18.148;2023-10-31T01:23:52;12.33;;;2.70;;
46284;SDS011;32018;59.182;18.148;2023-10-31T01:26:17;8.98;;;3.15;;
46284;SDS011;32018;59.182;18.148;2023-10-31T01:28:42;6.23;;;2.93;;
46284;SDS011;32018;59.182;18.148;2023-10-31T01:31:07;5.00;;;2.33;;
46284;SDS011;32018;59.182;18.148;2023-10-31T01:33:34;5.22;;;1.92;;
46284;SDS011;32018;59.182;18.148;2023-10-31T01:36:00;13.70;;;2.88;;
46284;SDS011;32018;59.182;18.148;2023-10-31T01:38:25;7.73;;;2.23;;
46284;SDS011;32018;59.182;18.148;2023-10-31T01:40:50;7.78;;;3.55;;
46284;SDS011;32018;59.182;18.148;2023-10-31T01:43:35;10.68;;;2.70;;
46284;SDS011;32018;59.182;18.148;2023-10-31T01:46:00;6.72;;;2.50;;
46284;SDS011;32018;59.182;18.148;2023-10-31T01:48:26;6.15;;;2.63;;
46284;SDS011;32018;59.182;18.148;2023-10-31T01:50:52;6.57;;;1.95;;
46284;SDS011;32018;59.182;18.148;2023-10-31T01:53:17;5.25;;;2.22;;
46284;SDS011;32018;59.182;18.148;2023-10-31T01:55:44;10.88;;;2.88;;
46284;SDS011;32018;59.182;18.148;2023-10-31T01:58:09;9.20;;;2.17;;
46284;SDS011;32018;59.182;18.148;2023-10-31T02:00:35;6.72;;;2.60;;
46284;SDS011;32018;59.182;18.148;2023-10-31T02:03:01;7.18;;;2.92;;
46284;SDS011;32018;59.182;18.148;2023-10-31T02:05:27;5.32;;;2.55;;
46284;SDS011;32018;59.182;18.148;2023-10-31T02:07:53;7.28;;;2.97;;
46284;SDS011;32018;59.182;18.148;2023-10-31T02:10:18;13.23;;;2.72;;
46284;SDS011;32018;59.182;18.148;2023-10-31T02:12:44;7.90;;;3.07;;
46284;SDS011;32018;59.182;18.148;2023-10-31T02:15:09;5.03;;;2.93;;
46284;SDS011;32018;59.182;18.148;2023-10-31T02:17:34;11.00;;;3.13;;
46284;SDS011;32018;59.182;18.148;2023-10-31T02:19:59;8.27;;;2.70;;
46284;SDS011;32018;59.182;18.148;2023-10-31T02:22:25;8.07;;;3.03;;
46284;SDS011;32018;59.182;18.148;2023-10-31T02:24:50;8.18;;;2.85;;
46284;SDS011;32018;59.182;18.148;2023-10-31T02:27:15;8.23;;;4.43;;
46284;SDS011;32018;59.182;18.148;2023-10-31T02:29:40;12.43;;;2.78;;
46284;SDS011;32018;59.182;18.148;2023-10-31T02:32:06;9.23;;;2.95;;
46284;SDS011;32018;59.182;18.148;2023-10-31T02:34:31;13.30;;;3.00;;
46284;SDS011;32018;59.182;18.148;2023-10-31T02:36:56;14.77;;;3.67;;
46284;SDS011;32018;59.182;18.148;2023-10-31T02:39:21;8.55;;;4.03;;
46284;SDS011;32018;59.182;18.148;2023-10-31T02:41:47;4.85;;;2.50;;
46284;SDS011;32018;59.182;18.148;2023-10-31T02:44:14;13.73;;;3.85;;
46284;SDS011;32018;59.182;18.148;2023-10-31T02:46:39;18.25;;;3.47;;
46284;SDS011;32018;59.182;18.148;2023-10-31T02:49:05;9.73;;;3.50;;
46284;SDS011;32018;59.182;18.148;2023-10-31T02:51:30;9.65;;;2.90;;
46284;SDS011;32018;59.182;18.148;2023-10-31T02:53:55;6.00;;;3.30;;
46284;SDS011;32018;59.182;18.148;2023-10-31T02:56:20;7.37;;;3.50;;
46284;SDS011;32018;59.182;18.148;2023-10-31T02:58:45;7.53;;;2.97;;
46284;SDS011;32018;59.182;18.148;2023-10-31T03:01:11;8.45;;;4.10;;
46284;SDS011;32018;59.182;18.148;2023-10-31T03:03:36;16.85;;;3.10;;
46284;SDS011;32018;59.182;18.148;2023-10-31T03:06:01;8.65;;;3.45;;
46284;SDS011;32018;59.182;18.148;2023-10-31T03:08:27;12.63;;;4.13;;
46284;SDS011;32018;59.182;18.148;2023-10-31T03:10:53;27.20;;;4.97;;
46284;SDS011;32018;59.182;18.148;2023-10-31T03:13:18;7.10;;;4.10;;
46284;SDS011;32018;59.182;18.148;2023-10-31T03:15:43;8.20;;;3.63;;
46284;SDS011;32018;59.182;18.148;2023-10-31T03:18:09;8.20;;;4.28;;
46284;SDS011;32018;59.182;18.148;2023-10-31T03:20:34;7.77;;;3.43;;
46284;SDS011;32018;59.182;18.148;2023-10-31T03:22:59;7.40;;;3.03;;
46284;SDS011;32018;59.182;18.148;2023-10-31T03:25:24;15.37;;;3.80;;
46284;SDS011;32018;59.182;18.148;2023-10-31T03:27:49;8.00;;;3.23;;
46284;SDS011;32018;59.182;18.148;2023-10-31T03:30:15;7.90;;;3.53;;
46284;SDS011;32018;59.182;18.148;2023-10-31T03:32:40;17.30;;;3.42;;
46284;SDS011;32018;59.182;18.148;2023-10-31T03:35:05;12.23;;;3.50;;
46284;SDS011;32018;59.182;18.148;2023-10-31T03:37:30;7.57;;;3.20;;
46284;SDS011;32018;59.182;18.148;2023-10-31T03:39:56;8.30;;;3.70;;
46284;SDS011;32018;59.182;18.148;2023-10-31T03:42:21;9.33;;;3.43;;
46284;SDS011;32018;59.182;18.148;2023-10-31T03:44:46;11.40;;;3.73;;
46284;SDS011;32018;59.182;18.148;2023-10-31T03:47:11;9.63;;;3.38;;
46284;SDS011;32018;59.182;18.148;2023-10-31T03:49:40;8.93;;;2.97;;
46284;SDS011;32018;59.182;18.148;2023-10-31T03:52:05;12.70;;;3.70;;
46284;SDS011;32018;59.182;18.148;2023-10-31T03:54:31;7.40;;;4.28;;
46284;SDS011;32018;59.182;18.148;2023-10-31T03:56:57;8.63;;;3.40;;
46284;SDS011;32018;59.182;18.148;2023-10-31T03:59:22;8.82;;;2.88;;
46284;SDS011;32018;59.182;18.148;2023-10-31T04:01:47;7.55;;;3.22;;
46284;SDS011;32018;59.182;18.148;2023-10-31T04:04:12;6.93;;;3.30;;
46284;SDS011;32018;59.182;18.148;2023-10-31T04:06:38;6.70;;;3.30;;
46284;SDS011;32018;59.182;18.148;2023-10-31T04:09:05;6.80;;;2.70;;
46284;SDS011;32018;59.182;18.148;2023-10-31T04:11:31;7.10;;;2.97;;
46284;SDS011;32018;59.182;18.148;2023-10-31T04:13:56;6.97;;;2.90;;
46284;SDS011;32018;59.182;18.148;2023-10-31T04:16:21;7.77;;;2.80;;
46284;SDS011;32018;59.182;18.148;2023-10-31T04:18:46;8.45;;;2.58;;
46284;SDS011;32018;59.182;18.148;2023-10-31T04:21:11;7.53;;;2.90;;
46284;SDS011;32018;59.182;18.148;2023-10-31T04:23:37;7.15;;;3.15;;
46284;SDS011;32018;59.182;18.148;2023-10-31T04:26:02;5.85;;;2.15;;
46284;SDS011;32018;59.182;18.148;2023-10-31T04:28:27;7.53;;;3.00;;
46284;SDS011;32018;59.182;18.148;2023-10-31T04:30:52;15.02;;;3.50;;
46284;SDS011;32018;59.182;18.148;2023-10-31T04:33:18;5.70;;;2.40;;
46284;SDS011;32018;59.182;18.148;2023-10-31T04:35:43;6.07;;;2.40;;
46284;SDS011;32018;59.182;18.148;2023-10-31T04:38:08;7.00;;;3.07;;
46284;SDS011;32018;59.182;18.148;2023-10-31T04:40:33;6.20;;;2.83;;
46284;SDS011;32018;59.182;18.148;2023-10-31T04:42:59;4.50;;;2.42;;
46284;SDS011;32018;59.182;18.148;2023-10-31T04:45:24;6.65;;;3.20;;
46284;SDS011;32018;59.182;18.148;2023-10-31T04:47:49;6.85;;;2.97;;
46284;SDS011;32018;59.182;18.148;2023-10-31T04:50:15;8.03;;;3.60;;
46284;SDS011;32018;59.182;18.148;2023-10-31T04:52:40;8.50;;;2.58;;
46284;SDS011;32018;59.182;18.148;2023-10-31T04:55:05;6.87;;;3.63;;
46284;SDS011;32018;59.182;18.148;2023-10-31T04:57:31;6.28;;;3.00;;
46284;SDS011;32018;59.182;18.148;2023-10-31T04:59:56;9.27;;;3.28;;
46284;SDS011;32018;59.182;18.148;2023-10-31T05:02:22;6.18;;;2.95;;
46284;SDS011;32018;59.182;18.148;2023-10-31T05:04:48;10.10;;;3.03;;
46284;SDS011;32018;59.182;18.148;2023-10-31T05:07:15;6.82;;;2.53;;
46284;SDS011;32018;59.182;18.148;2023-10-31T05:09:41;8.30;;;2.70;;
46284;SDS011;32018;59.182;18.148;2023-10-31T05:12:06;7.60;;;3.08;;
46284;SDS011;32018;59.182;18.148;2023-10-31T05:14:31;8.25;;;3.30;;
46284;SDS011;32018;59.182;18.148;2023-10-31T05:16:57;6.07;;;2.93;;
46284;SDS011;32018;59.182;18.148;2023-10-31T05:19:22;9.83;;;3.10;;
46284;SDS011;32018;59.182;18.148;2023-10-31T05:21:47;10.50;;;3.15;;
46284;SDS011;32018;59.182;18.148;2023-10-31T05:24:12;7.40;;;2.78;;
46284;SDS011;32018;59.182;18.148;2023-10-31T05:26:39;2.47;;;2.00;;
46284;SDS011;32018;59.182;18.148;2023-10-31T05:29:04;8.15;;;3.00;;
46284;SDS011;32018;59.182;18.148;2023-10-31T05:31:29;4.40;;;2.07;;
46284;SDS011;32018;59.182;18.148;2023-10-31T05:33:55;9.43;;;3.05;;
46284;SDS011;32018;59.182;18.148;2023-10-31T05:36:23;6.93;;;2.92;;
46284;SDS011;32018;59.182;18.148;2023-10-31T05:38:49;6.18;;;2.60;;
46284;SDS011;32018;59.182;18.148;2023-10-31T05:41:15;7.20;;;3.13;;
46284;SDS011;32018;59.182;18.148;2023-10-31T05:43:40;5.32;;;2.45;;
46284;SDS011;32018;59.182;18.148;2023-10-31T05:46:06;4.82;;;2.60;;
46284;SDS011;32018;59.182;18.148;2023-10-31T05:48:31;8.10;;;3.50;;
46284;SDS011;32018;59.182;18.148;2023-10-31T05:50:57;4.38;;;2.33;;
46284;SDS011;32018;59.182;18.148;2023-10-31T05:53:22;8.77;;;3.60;;
46284;SDS011;32018;59.182;18.148;2023-10-31T05:55:47;6.68;;;3.03;;
46284;SDS011;32018;59.182;18.148;2023-10-31T05:58:12;14.40;;;3.65;;
46284;SDS011;32018;59.182;18.148;2023-10-31T06:00:37;10.73;;;4.53;;
46284;SDS011;32018;59.182;18.148;2023-10-31T06:03:03;11.23;;;3.85;;
46284;SDS011;32018;59.182;18.148;2023-10-31T06:05:28;8.90;;;4.18;;
46284;SDS011;32018;59.182;18.148;2023-10-31T06:07:53;6.43;;;2.80;;
46284;SDS011;32018;59.182;18.148;2023-10-31T06:10:18;9.73;;;4.07;;
46284;SDS011;32018;59.182;18.148;2023-10-31T06:12:43;9.43;;;4.03;;
46284;SDS011;32018;59.182;18.148;2023-10-31T06:15:10;10.23;;;3.77;;
46284;SDS011;32018;59.182;18.148;2023-10-31T06:17:35;8.15;;;3.08;;
46284;SDS011;32018;59.182;18.148;2023-10-31T06:20:01;6.88;;;3.28;;
46284;SDS011;32018;59.182;18.148;2023-10-31T06:22:26;5.30;;;2.35;;
46284;SDS011;32018;59.182;18.148;2023-10-31T06:24:51;7.43;;;3.80;;
46284;SDS011;32018;59.182;18.148;2023-10-31T06:27:16;8.73;;;4.23;;
46284;SDS011;32018;59.182;18.148;2023-10-31T06:29:42;12.17;;;4.00;;
46284;SDS011;32018;59.182;18.148;2023-10-31T06:32:07;5.90;;;2.73;;
46284;SDS011;32018;59.182;18.148;2023-10-31T06:34:32;14.60;;;4.25;;
46284;SDS011;32018;59.182;18.148;2023-10-31T06:36:57;11.73;;;4.43;;
46284;SDS011;32018;59.182;18.148;2023-10-31T06:39:23;13.30;;;5.10;;
46284;SDS011;32018;59.182;18.148;2023-10-31T06:41:48;12.43;;;5.50;;
46284;SDS011;32018;59.182;18.148;2023-10-31T06:44:13;6.82;;;3.05;;
46284;SDS011;32018;59.182;18.148;2023-10-31T06:46:38;20.30;;;5.15;;
46284;SDS011;32018;59.182;18.148;2023-10-31T06:49:04;8.43;;;3.67;;
46284;SDS011;32018;59.182;18.148;2023-10-31T06:51:29;5.57;;;3.30;;
46284;SDS011;32018;59.182;18.148;2023-10-31T06:53:54;11.40;;;3.65;;
46284;SDS011;32018;59.182;18.148;2023-10-31T06:56:19;11.47;;;4.70;;
46284;SDS011;32018;59.182;18.148;2023-10-31T06:58:45;15.65;;;4.75;;
46284;SDS011;32018;59.182;18.148;2023-10-31T07:01:10;8.03;;;3.10;;
46284;SDS011;32018;59.182;18.148;2023-10-31T07:03:36;11.13;;;4.22;;
46284;SDS011;32018;59.182;18.148;2023-10-31T07:06:01;21.70;;;5.57;;
46284;SDS011;32018;59.182;18.148;2023-10-31T07:08:26;11.77;;;4.78;;
46284;SDS011;32018;59.182;18.148;2023-10-31T07:10:52;11.75;;;4.25;;
46284;SDS011;32018;59.182;18.148;2023-10-31T07:13:17;7.55;;;3.75;;
46284;SDS011;32018;59.182;18.148;2023-10-31T07:15:42;10.68;;;4.63;;
46284;SDS011;32018;59.182;18.148;2023-10-31T07:18:08;9.15;;;4.10;;
46284;SDS011;32018;59.182;18.148;2023-10-31T07:20:33;12.68;;;4.10;;
46284;SDS011;32018;59.182;18.148;2023-10-31T07:22:58;5.85;;;3.17;;
46284;SDS011;32018;59.182;18.148;2023-10-31T07:25:23;5.73;;;2.43;;
46284;SDS011;32018;59.182;18.148;2023-10-31T07:27:49;9.40;;;4.00;;
46284;SDS011;32018;59.182;18.148;2023-10-31T07:30:14;9.65;;;4.28;;
46284;SDS011;32018;59.182;18.148;2023-10-31T07:32:39;16.20;;;4.88;;
46284;SDS011;32018;59.182;18.148;2023-10-31T07:35:04;6.38;;;3.15;;
46284;SDS011;32018;59.182;18.148;2023-10-31T07:37:30;6.75;;;3.72;;
46284;SDS011;32018;59.182;18.148;2023-10-31T07:39:55;5.53;;;2.70;;
46284;SDS011;32018;59.182;18.148;2023-10-31T07:42:20;12.30;;;3.22;;
46284;SDS011;32018;59.182;18.148;2023-10-31T07:44:45;7.30;;;2.70;;
46284;SDS011;32018;59.182;18.148;2023-10-31T07:47:11;3.63;;;2.07;;
46284;SDS011;32018;59.182;18.148;2023-10-31T07:49:36;11.53;;;3.77;;
46284;SDS011;32018;59.182;18.148;2023-10-31T07:52:01;5.73;;;2.80;;
46284;SDS011;32018;59.182;18.148;2023-10-31T07:54:26;10.82;;;3.67;;
46284;SDS011;32018;59.182;18.148;2023-10-31T07:56:52;6.75;;;4.00;;
46284;SDS011;32018;59.182;18.148;2023-10-31T07:59:17;8.32;;;3.67;;
46284;SDS011;32018;59.182;18.148;2023-10-31T08:01:42;10.82;;;3.05;;
46284;SDS011;32018;59.182;18.148;2023-10-31T08:04:08;7.78;;;4.03;;
46284;SDS011;32018;59.182;18.148;2023-10-31T08:06:33;6.82;;;2.80;;
46284;SDS011;32018;59.182;18.148;2023-10-31T08:08:59;6.25;;;3.80;;
46284;SDS011;32018;59.182;18.148;2023-10-31T08:11:24;10.63;;;2.83;;
46284;SDS011;32018;59.182;18.148;2023-10-31T08:13:49;10.67;;;3.17;;
46284;SDS011;32018;59.182;18.148;2023-10-31T08:16:17;12.33;;;4.10;;
46284;SDS011;32018;59.182;18.148;2023-10-31T08:18:43;8.50;;;3.53;;
46284;SDS011;32018;59.182;18.148;2023-10-31T08:21:09;4.82;;;2.17;;
46284;SDS011;32018;59.182;18.148;2023-10-31T08:23:34;4.70;;;3.10;;
46284;SDS011;32018;59.182;18.148;2023-10-31T08:26:03;7.55;;;4.78;;
46284;SDS011;32018;59.182;18.148;2023-10-31T08:28:29;9.95;;;3.00;;
46284;SDS011;32018;59.182;18.148;2023-10-31T08:30:55;10.30;;;3.92;;
46284;SDS011;32018;59.182;18.148;2023-10-31T08:33:20;5.50;;;2.70;;
46284;SDS011;32018;59.182;18.148;2023-10-31T08:35:45;8.33;;;4.17;;
46284;SDS011;32018;59.182;18.148;2023-10-31T08:38:12;7.85;;;4.30;;
46284;SDS011;32018;59.182;18.148;2023-10-31T08:40:38;3.42;;;1.73;;
46284;SDS011;32018;59.182;18.148;2023-10-31T08:43:03;9.97;;;4.00;;
46284;SDS011;32018;59.182;18.148;2023-10-31T08:45:31;11.23;;;5.25;;
46284;SDS011;32018;59.182;18.148;2023-10-31T08:47:56;7.77;;;3.37;;
46284;SDS011;32018;59.182;18.148;2023-10-31T08:50:21;11.07;;;3.50;;
46284;SDS011;32018;59.182;18.148;2023-10-31T08:52:47;11.13;;;4.00;;
46284;SDS011;32018;59.182;18.148;2023-10-31T08:55:12;11.80;;;4.23;;
46284;SDS011;32018;59.182;18.148;2023-10-31T08:57:37;8.23;;;4.88;;
46284;SDS011;32018;59.182;18.148;2023-10-31T09:00:03;13.35;;;4.05;;
46284;SDS011;32018;59.182;18.148;2023-10-31T09:02:30;12.90;;;4.45;;
46284;SDS011;32018;59.182;18.148;2023-10-31T09:04:55;6.68;;;4.05;;
46284;SDS011;32018;59.182;18.148;2023-10-31T09:07:20;7.87;;;3.83;;
46284;SDS011;32018;59.182;18.148;2023-10-31T09:09:45;12.93;;;4.15;;
46284;SDS011;32018;59.182;18.148;2023-10-31T09:12:10;6.93;;;3.20;;
46284;SDS011;32018;59.182;18.148;2023-10-31T09:14:36;5.60;;;3.60;;
46284;SDS011;32018;59.182;18.148;2023-10-31T09:17:02;12.70;;;4.55;;
46284;SDS011;32018;59.182;18.148;2023-10-31T09:19:27;6.82;;;4.13;;
46284;SDS011;32018;59.182;18.148;2023-10-31T09:21:53;5.50;;;3.28;;
46284;SDS011;32018;59.182;18.148;2023-10-31T09:24:18;4.05;;;2.58;;
46284;SDS011;32018;59.182;18.148;2023-10-31T09:26:43;4.50;;;2.97;;
46284;SDS011;32018;59.182;18.148;2023-10-31T09:29:10;5.80;;;2.95;;
46284;SDS011;32018;59.182;18.148;2023-10-31T09:31:35;8.15;;;3.88;;
46284;SDS011;32018;59.182;18.148;2023-10-31T09:34:00;5.20;;;2.60;;
46284;SDS011;32018;59.182;18.148;2023-10-31T09:36:25;3.65;;;2.10;;
46284;SDS011;32018;59.182;18.148;2023-10-31T09:38:51;6.90;;;3.83;;
46284;SDS011;32018;59.182;18.148;2023-10-31T09:41:16;12.33;;;4.47;;
46284;SDS011;32018;59.182;18.148;2023-10-31T09:43:41;4.37;;;2.20;;
46284;SDS011;32018;59.182;18.148;2023-10-31T09:46:07;4.53;;;2.22;;
46284;SDS011;32018;59.182;18.148;2023-10-31T09:48:34;6.43;;;2.95;;
46284;SDS011;32018;59.182;18.148;2023-10-31T09:51:00;5.55;;;3.13;;
46284;SDS011;32018;59.182;18.148;2023-10-31T09:53:25;3.92;;;2.30;;
46284;SDS011;32018;59.182;18.148;2023-10-31T09:55:51;3.88;;;2.08;;
46284;SDS011;32018;59.182;18.148;2023-10-31T09:58:18;4.03;;;2.67;;
46284;SDS011;32018;59.182;18.148;2023-10-31T10:00:44;3.83;;;2.25;;
46284;SDS011;32018;59.182;18.148;2023-10-31T10:03:09;3.87;;;2.07;;
46284;SDS011;32018;59.182;18.148;2023-10-31T10:05:35;4.18;;;2.78;;
46284;SDS011;32018;59.182;18.148;2023-10-31T10:08:00;3.17;;;2.58;;
46284;SDS011;32018;59.182;18.148;2023-10-31T10:10:25;3.45;;;2.13;;
46284;SDS011;32018;59.182;18.148;2023-10-31T10:12:51;2.70;;;2.47;;
46284;SDS011;32018;59.182;18.148;2023-10-31T10:15:16;4.38;;;2.40;;
46284;SDS011;32018;59.182;18.148;2023-10-31T10:17:47;3.23;;;2.13;;
46284;SDS011;32018;59.182;18.148;2023-10-31T10:20:13;5.80;;;2.28;;
46284;SDS011;32018;59.182;18.148;2023-10-31T10:22:41;4.82;;;2.45;;
46284;SDS011;32018;59.182;18.148;2023-10-31T10:25:17;2.55;;;2.22;;
46284;SDS011;32018;59.182;18.148;2023-10-31T10:27:43;3.50;;;2.10;;
46284;SDS011;32018;59.182;18.148;2023-10-31T10:30:09;10.95;;;3.70;;
46284;SDS011;32018;59.182;18.148;2023-10-31T10:32:34;3.03;;;2.00;;
46284;SDS011;32018;59.182;18.148;2023-10-31T10:35:00;3.73;;;2.40;;
46284;SDS011;32018;59.182;18.148;2023-10-31T10:37:26;2.55;;;1.70;;
46284;SDS011;32018;59.182;18.148;2023-10-31T10:39:52;3.42;;;2.97;;
46284;SDS011;32018;59.182;18.148;2023-10-31T10:42:24;4.18;;;2.67;;
46284;SDS011;32018;59.182;18.148;2023-10-31T10:44:51;4.60;;;2.08;;
46284;SDS011;32018;59.182;18.148;2023-10-31T10:47:17;11.10;;;3.60;;
46284;SDS011;32018;59.182;18.148;2023-10-31T10:49:43;4.57;;;2.15;;
46284;SDS011;32018;59.182;18.148;2023-10-31T10:52:13;4.22;;;2.45;;
46284;SDS011;32018;59.182;18.148;2023-10-31T10:59:58;3.03;;;2.30;;
46284;SDS011;32018;59.182;18.148;2023-10-31T11:02:26;6.75;;;2.55;;
46284;SDS011;32018;59.182;18.148;2023-10-31T11:04:52;4.97;;;2.35;;
46284;SDS011;32018;59.182;18.148;2023-10-31T11:07:18;5.38;;;2.38;;
46284;SDS011;32018;59.182;18.148;2023-10-31T11:09:43;7.15;;;2.30;;
46284;SDS011;32018;59.182;18.148;2023-10-31T11:12:09;4.43;;;2.20;;
46284;SDS011;32018;59.182;18.148;2023-10-31T11:14:35;4.97;;;2.95;;
46284;SDS011;32018;59.182;18.148;2023-10-31T11:17:01;6.38;;;3.65;;
46284;SDS011;32018;59.182;18.148;2023-10-31T11:19:28;4.25;;;2.70;;
46284;SDS011;32018;59.182;18.148;2023-10-31T11:22:00;8.88;;;3.65;;
46284;SDS011;32018;59.182;18.148;2023-10-31T11:24:29;3.85;;;3.25;;
46284;SDS011;32018;59.182;18.148;2023-10-31T11:27:00;4.35;;;3.42;;
46284;SDS011;32018;59.182;18.148;2023-10-31T11:29:25;4.65;;;2.95;;
46284;SDS011;32018;59.182;18.148;2023-10-31T11:31:51;9.70;;;4.20;;
46284;SDS011;32018;59.182;18.148;2023-10-31T11:34:16;5.47;;;3.03;;
46284;SDS011;32018;59.182;18.148;2023-10-31T11:36:44;5.75;;;4.38;;
46284;SDS011;32018;59.182;18.148;2023-10-31T11:39:10;5.18;;;3.72;;
46284;SDS011;32018;59.182;18.148;2023-10-31T11:41:35;6.20;;;3.90;;
46284;SDS011;32018;59.182;18.148;2023-10-31T11:44:02;5.10;;;3.25;;
46284;SDS011;32018;59.182;18.148;2023-10-31T11:46:27;8.48;;;6.15;;
46284;SDS011;32018;59.182;18.148;2023-10-31T11:48:54;3.53;;;2.83;;
46284;SDS011;32018;59.182;18.148;2023-10-31T11:51:21;4.70;;;4.28;;
46284;SDS011;32018;59.182;18.148;2023-10-31T11:53:46;5.55;;;4.38;;
46284;SDS011;32018;59.182;18.148;2023-10-31T11:56:12;2.95;;;2.65;;
46284;SDS011;32018;59.182;18.148;2023-10-31T11:58:38;2.85;;;2.60;;
46284;SDS011;32018;59.182;18.148;2023-10-31T12:01:04;3.20;;;2.30;;
46284;SDS011;32018;59.182;18.148;2023-10-31T12:03:39;4.78;;;3.75;;
46284;SDS011;32018;59.182;18.148;2023-10-31T12:06:05;2.72;;;2.53;;
46284;SDS011;32018;59.182;18.148;2023-10-31T12:08:37;2.63;;;2.00;;
46284;SDS011;32018;59.182;18.148;2023-10-31T12:13:38;1.60;;;1.38;;
46284;SDS011;32018;59.182;18.148;2023-10-31T12:16:04;1.75;;;1.40;;
46284;SDS011;32018;59.182;18.148;2023-10-31T12:18:29;1.25;;;1.15;;
46284;SDS011;32018;59.182;18.148;2023-10-31T12:20:54;2.30;;;1.30;;
46284;SDS011;32018;59.182;18.148;2023-10-31T12:23:20;2.03;;;1.52;;
46284;SDS011;32018;59.182;18.148;2023-10-31T12:25:48;2.23;;;1.30;;
46284;SDS011;32018;59.182;18.148;2023-10-31T12:28:20;2.88;;;1.63;;
46284;SDS011;32018;59.182;18.148;2023-10-31T12:30:46;3.20;;;1.35;;
46284;SDS011;32018;59.182;18.148;2023-10-31T12:33:12;1.10;;;1.00;;
46284;SDS011;32018;59.182;18.148;2023-10-31T12:35:37;1.02;;;1.00;;
46284;SDS011;32018;59.182;18.148;2023-10-31T12:38:03;1.10;;;1.00;;
46284;SDS011;32018;59.182;18.148;2023-10-31T12:40:28;1.00;;;0.98;;
46284;SDS011;32018;59.182;18.148;2023-10-31T12:42:53;1.17;;;1.08;;
46284;SDS011;32018;59.182;18.148;2023-10-31T12:45:19;2.17;;;1.08;;
46284;SDS011;32018;59.182;18.148;2023-10-31T12:47:44;2.13;;;1.92;;
46284;SDS011;32018;59.182;18.148;2023-10-31T12:50:12;1.90;;;1.40;;
46284;SDS011;32018;59.182;18.148;2023-10-31T12:52:50;1.60;;;1.50;;
46284;SDS011;32018;59.182;18.148;2023-10-31T12:57:43;1.30;;;1.20;;
46284;SDS011;32018;59.182;18.148;2023-10-31T13:00:10;1.10;;;1.00;;
46284;SDS011;32018;59.182;18.148;2023-10-31T13:02:37;1.33;;;1.23;;
46284;SDS011;32018;59.182;18.148;2023-10-31T13:05:12;1.42;;;1.33;;
46284;SDS011;32018;59.182;18.148;2023-10-31T13:07:38;1.23;;;1.08;;
46284;SDS011;32018;59.182;18.148;2023-10-31T13:10:04;1.20;;;1.10;;
46284;SDS011;32018;59.182;18.148;2023-10-31T13:12:30;0.90;;;0.90;;
46284;SDS011;32018;59.182;18.148;2023-10-31T13:14:55;1.27;;;0.80;;
46284;SDS011;32018;59.182;18.148;2023-10-31T13:17:21;1.33;;;0.90;;
46284;SDS011;32018;59.182;18.148;2023-10-31T13:19:46;1.00;;;0.90;;
46284;SDS011;32018;59.182;18.148;2023-10-31T13:22:11;1.20;;;0.80;;
46284;SDS011;32018;59.182;18.148;2023-10-31T13:24:36;1.58;;;0.95;;
46284;SDS011;32018;59.182;18.148;2023-10-31T13:27:02;1.13;;;0.80;;
46284;SDS011;32018;59.182;18.148;2023-10-31T13:29:28;0.65;;;0.60;;
46284;SDS011;32018;59.182;18.148;2023-10-31T13:31:53;1.00;;;0.90;;
46284;SDS011;32018;59.182;18.148;2023-10-31T13:34:19;1.10;;;0.75;;
46284;SDS011;32018;59.182;18.148;2023-10-31T13:36:44;0.80;;;0.77;;
46284;SDS011;32018;59.182;18.148;2023-10-31T13:39:09;1.23;;;0.80;;
46284;SDS011;32018;59.182;18.148;2023-10-31T13:41:34;0.73;;;0.68;;
46284;SDS011;32018;59.182;18.148;2023-10-31T13:44:00;0.80;;;0.60;;
46284;SDS011;32018;59.182;18.148;2023-10-31T13:46:28;0.70;;;0.70;;
46284;SDS011;32018;59.182;18.148;2023-10-31T13:48:53;0.80;;;0.55;;
46284;SDS011;32018;59.182;18.148;2023-10-31T13:51:18;0.60;;;0.60;;
46284;SDS011;32018;59.182;18.148;2023-10-31T13:53:44;0.80;;;0.50;;
46284;SDS011;32018;59.182;18.148;2023-10-31T13:56:09;1.43;;;1.13;;
46284;SDS011;32018;59.182;18.148;2023-10-31T13:58:34;0.77;;;0.77;;
46284;SDS011;32018;59.182;18.148;2023-10-31T14:01:00;0.70;;;0.70;;
46284;SDS011;32018;59.182;18.148;2023-10-31T14:03:25;0.80;;;0.80;;
46284;SDS011;32018;59.182;18.148;2023-10-31T14:05:51;1.13;;;1.03;;
46284;SDS011;32018;59.182;18.148;2023-10-31T14:08:16;0.60;;;0.60;;
46284;SDS011;32018;59.182;18.148;2023-10-31T14:10:41;0.60;;;0.60;;
46284;SDS011;32018;59.182;18.148;2023-10-31T14:13:10;0.45;;;0.40;;
46284;SDS011;32018;59.182;18.148;2023-10-31T14:15:35;0.68;;;0.57;;
46284;SDS011;32018;59.182;18.148;2023-10-31T14:18:01;0.60;;;0.60;;
46284;SDS011;32018;59.182;18.148;2023-10-31T14:20:27;0.30;;;0.30;;
46284;SDS011;32018;59.182;18.148;2023-10-31T14:22:52;0.50;;;0.50;;
46284;SDS011;32018;59.182;18.148;2023-10-31T14:25:18;0.50;;;0.50;;
46284;SDS011;32018;59.182;18.148;2023-10-31T14:27:43;0.47;;;0.47;;
46284;SDS011;32018;59.182;18.148;2023-10-31T14:30:09;0.45;;;0.45;;
46284;SDS011;32018;59.182;18.148;2023-10-31T14:32:34;0.68;;;0.60;;